sensor_id;sensor_type;location;lat;lon;timestamp;P1;durP1;ratioP1;P2;durP2;ratioP2
40453;SDS011;26160;51.858;4.398;2022-08-03T00:01:46;4.85;;;1.40;;
40453;SDS011;26160;51.858;4.398;2022-08-03T00:04:12;4.53;;;1.40;;
40453;SDS011;26160;51.858;4.398;2022-08-03T00:06:39;5.07;;;1.60;;
40453;SDS011;26160;51.858;4.398;2022-08-03T00:09:05;5.15;;;1.80;;
40453;SDS011;26160;51.858;4.398;2022-08-03T00:11:32;5.60;;;1.80;;
40453;SDS011;26160;51.858;4.398;2022-08-03T00:13:59;7.90;;;1.70;;
40453;SDS011;26160;51.858;4.398;2022-08-03T00:16:25;9.02;;;2.00;;
40453;SDS011;26160;51.858;4.398;2022-08-03T00:18:51;5.32;;;1.55;;
40453;SDS011;26160;51.858;4.398;2022-08-03T00:21:18;5.40;;;2.28;;
40453;SDS011;26160;51.858;4.398;2022-08-03T00:23:44;6.25;;;1.92;;
40453;SDS011;26160;51.858;4.398;2022-08-03T00:26:10;6.85;;;2.22;;
40453;SDS011;26160;51.858;4.398;2022-08-03T00:28:36;7.25;;;2.22;;
40453;SDS011;26160;51.858;4.398;2022-08-03T00:31:02;5.05;;;1.50;;
40453;SDS011;26160;51.858;4.398;2022-08-03T00:33:28;4.93;;;1.92;;
40453;SDS011;26160;51.858;4.398;2022-08-03T00:35:55;7.43;;;2.30;;
40453;SDS011;26160;51.858;4.398;2022-08-03T00:38:21;7.32;;;2.83;;
40453;SDS011;26160;51.858;4.398;2022-08-03T00:40:47;8.07;;;2.00;;
40453;SDS011;26160;51.858;4.398;2022-08-03T00:43:13;8.85;;;2.20;;
40453;SDS011;26160;51.858;4.398;2022-08-03T00:45:40;6.53;;;2.45;;
40453;SDS011;26160;51.858;4.398;2022-08-03T00:48:07;6.55;;;1.90;;
40453;SDS011;26160;51.858;4.398;2022-08-03T00:50:37;7.50;;;1.80;;
40453;SDS011;26160;51.858;4.398;2022-08-03T00:53:06;7.57;;;2.00;;
40453;SDS011;26160;51.858;4.398;2022-08-03T00:55:34;8.82;;;2.13;;
40453;SDS011;26160;51.858;4.398;2022-08-03T00:58:01;8.68;;;1.98;;
40453;SDS011;26160;51.858;4.398;2022-08-03T01:00:32;6.45;;;2.33;;
40453;SDS011;26160;51.858;4.398;2022-08-03T01:03:07;10.40;;;2.53;;
40453;SDS011;26160;51.858;4.398;2022-08-03T01:05:48;9.95;;;2.38;;
40453;SDS011;26160;51.858;4.398;2022-08-03T01:14:15;6.95;;;2.28;;
40453;SDS011;26160;51.858;4.398;2022-08-03T01:16:58;9.38;;;2.67;;
40453;SDS011;26160;51.858;4.398;2022-08-03T01:22:08;9.45;;;2.25;;
40453;SDS011;26160;51.858;4.398;2022-08-03T01:27:53;8.52;;;2.03;;
40453;SDS011;26160;51.858;4.398;2022-08-03T01:30:29;10.40;;;2.50;;
40453;SDS011;26160;51.858;4.398;2022-08-03T01:32:59;12.02;;;2.13;;
40453;SDS011;26160;51.858;4.398;2022-08-03T01:35:34;10.93;;;2.87;;
40453;SDS011;26160;51.858;4.398;2022-08-03T01:38:09;9.52;;;2.50;;
40453;SDS011;26160;51.858;4.398;2022-08-03T01:40:38;6.93;;;2.03;;
40453;SDS011;26160;51.858;4.398;2022-08-03T01:43:06;11.23;;;2.58;;
40453;SDS011;26160;51.858;4.398;2022-08-03T01:45:34;10.13;;;2.67;;
40453;SDS011;26160;51.858;4.398;2022-08-03T01:48:01;6.18;;;2.00;;
40453;SDS011;26160;51.858;4.398;2022-08-03T01:50:28;8.18;;;2.22;;
40453;SDS011;26160;51.858;4.398;2022-08-03T01:52:56;10.57;;;2.25;;
40453;SDS011;26160;51.858;4.398;2022-08-03T01:55:23;6.25;;;2.13;;
40453;SDS011;26160;51.858;4.398;2022-08-03T01:57:52;7.72;;;2.33;;
40453;SDS011;26160;51.858;4.398;2022-08-03T02:00:21;10.65;;;2.45;;
40453;SDS011;26160;51.858;4.398;2022-08-03T02:02:49;8.32;;;2.47;;
40453;SDS011;26160;51.858;4.398;2022-08-03T02:05:18;8.75;;;2.47;;
40453;SDS011;26160;51.858;4.398;2022-08-03T02:07:46;7.40;;;2.58;;
40453;SDS011;26160;51.858;4.398;2022-08-03T02:10:14;9.45;;;2.38;;
40453;SDS011;26160;51.858;4.398;2022-08-03T02:12:43;7.88;;;2.53;;
40453;SDS011;26160;51.858;4.398;2022-08-03T02:15:10;9.13;;;2.22;;
40453;SDS011;26160;51.858;4.398;2022-08-03T02:17:37;10.40;;;2.65;;
40453;SDS011;26160;51.858;4.398;2022-08-03T02:20:04;8.05;;;2.88;;
40453;SDS011;26160;51.858;4.398;2022-08-03T02:22:31;10.07;;;2.72;;
40453;SDS011;26160;51.858;4.398;2022-08-03T02:24:58;6.93;;;1.95;;
40453;SDS011;26160;51.858;4.398;2022-08-03T02:27:25;11.02;;;2.42;;
40453;SDS011;26160;51.858;4.398;2022-08-03T02:29:54;8.80;;;2.90;;
40453;SDS011;26160;51.858;4.398;2022-08-03T02:32:30;11.00;;;2.72;;
40453;SDS011;26160;51.858;4.398;2022-08-03T02:35:00;9.02;;;2.30;;
40453;SDS011;26160;51.858;4.398;2022-08-03T02:37:30;14.13;;;3.08;;
40453;SDS011;26160;51.858;4.398;2022-08-03T02:40:03;6.97;;;2.17;;
40453;SDS011;26160;51.858;4.398;2022-08-03T02:42:32;13.82;;;3.05;;
40453;SDS011;26160;51.858;4.398;2022-08-03T02:45:02;7.32;;;2.45;;
40453;SDS011;26160;51.858;4.398;2022-08-03T02:47:31;8.57;;;1.77;;
40453;SDS011;26160;51.858;4.398;2022-08-03T02:49:59;7.35;;;1.83;;
40453;SDS011;26160;51.858;4.398;2022-08-03T02:52:27;12.73;;;2.83;;
40453;SDS011;26160;51.858;4.398;2022-08-03T02:54:56;8.57;;;1.92;;
40453;SDS011;26160;51.858;4.398;2022-08-03T02:57:25;12.80;;;2.97;;
40453;SDS011;26160;51.858;4.398;2022-08-03T02:59:54;10.00;;;2.42;;
40453;SDS011;26160;51.858;4.398;2022-08-03T03:02:22;11.63;;;2.53;;
40453;SDS011;26160;51.858;4.398;2022-08-03T03:04:49;7.03;;;2.05;;
40453;SDS011;26160;51.858;4.398;2022-08-03T03:07:16;6.70;;;2.00;;
40453;SDS011;26160;51.858;4.398;2022-08-03T03:09:44;10.63;;;2.45;;
40453;SDS011;26160;51.858;4.398;2022-08-03T03:12:11;10.50;;;2.45;;
40453;SDS011;26160;51.858;4.398;2022-08-03T03:14:38;12.07;;;2.55;;
40453;SDS011;26160;51.858;4.398;2022-08-03T03:17:05;9.80;;;2.50;;
40453;SDS011;26160;51.858;4.398;2022-08-03T03:19:33;10.75;;;3.05;;
40453;SDS011;26160;51.858;4.398;2022-08-03T03:22:01;10.90;;;2.58;;
40453;SDS011;26160;51.858;4.398;2022-08-03T03:24:29;11.88;;;2.40;;
40453;SDS011;26160;51.858;4.398;2022-08-03T03:26:55;7.72;;;2.50;;
40453;SDS011;26160;51.858;4.398;2022-08-03T03:29:22;14.05;;;4.68;;
40453;SDS011;26160;51.858;4.398;2022-08-03T03:31:49;14.57;;;3.08;;
40453;SDS011;26160;51.858;4.398;2022-08-03T03:34:15;8.25;;;2.55;;
40453;SDS011;26160;51.858;4.398;2022-08-03T03:36:43;7.97;;;2.65;;
40453;SDS011;26160;51.858;4.398;2022-08-03T03:39:09;14.65;;;3.72;;
40453;SDS011;26160;51.858;4.398;2022-08-03T03:41:36;10.18;;;2.63;;
40453;SDS011;26160;51.858;4.398;2022-08-03T03:44:03;11.75;;;2.92;;
40453;SDS011;26160;51.858;4.398;2022-08-03T03:46:29;12.93;;;3.42;;
40453;SDS011;26160;51.858;4.398;2022-08-03T03:48:56;16.63;;;3.40;;
40453;SDS011;26160;51.858;4.398;2022-08-03T03:51:22;10.52;;;2.95;;
40453;SDS011;26160;51.858;4.398;2022-08-03T03:53:58;7.60;;;2.63;;
40453;SDS011;26160;51.858;4.398;2022-08-03T03:56:26;11.68;;;3.22;;
40453;SDS011;26160;51.858;4.398;2022-08-03T03:58:53;7.13;;;2.85;;
40453;SDS011;26160;51.858;4.398;2022-08-03T04:01:20;8.52;;;2.97;;
40453;SDS011;26160;51.858;4.398;2022-08-03T04:03:47;13.25;;;3.00;;
40453;SDS011;26160;51.858;4.398;2022-08-03T04:06:13;11.43;;;2.97;;
40453;SDS011;26160;51.858;4.398;2022-08-03T04:08:59;12.25;;;2.60;;
40453;SDS011;26160;51.858;4.398;2022-08-03T04:11:51;9.75;;;3.00;;
40453;SDS011;26160;51.858;4.398;2022-08-03T04:14:23;13.85;;;3.75;;
40453;SDS011;26160;51.858;4.398;2022-08-03T04:16:55;11.32;;;2.67;;
40453;SDS011;26160;51.858;4.398;2022-08-03T04:21:58;10.38;;;3.05;;
40453;SDS011;26160;51.858;4.398;2022-08-03T04:24:29;14.23;;;3.70;;
40453;SDS011;26160;51.858;4.398;2022-08-03T04:26:58;15.77;;;3.60;;
40453;SDS011;26160;51.858;4.398;2022-08-03T04:29:27;11.70;;;3.03;;
40453;SDS011;26160;51.858;4.398;2022-08-03T04:31:57;12.43;;;3.13;;
40453;SDS011;26160;51.858;4.398;2022-08-03T04:34:25;10.65;;;2.80;;
40453;SDS011;26160;51.858;4.398;2022-08-03T04:36:54;11.05;;;3.17;;
40453;SDS011;26160;51.858;4.398;2022-08-03T04:39:23;12.55;;;2.60;;
40453;SDS011;26160;51.858;4.398;2022-08-03T04:41:54;10.02;;;3.17;;
40453;SDS011;26160;51.858;4.398;2022-08-03T04:44:23;9.02;;;2.65;;
40453;SDS011;26160;51.858;4.398;2022-08-03T04:46:50;9.10;;;3.25;;
40453;SDS011;26160;51.858;4.398;2022-08-03T04:49:17;19.60;;;3.22;;
40453;SDS011;26160;51.858;4.398;2022-08-03T04:51:45;13.18;;;3.00;;
40453;SDS011;26160;51.858;4.398;2022-08-03T04:54:13;9.98;;;2.42;;
40453;SDS011;26160;51.858;4.398;2022-08-03T04:56:41;9.52;;;2.47;;
40453;SDS011;26160;51.858;4.398;2022-08-03T04:59:09;11.57;;;3.33;;
40453;SDS011;26160;51.858;4.398;2022-08-03T05:01:36;16.38;;;2.85;;
40453;SDS011;26160;51.858;4.398;2022-08-03T05:04:03;11.25;;;3.20;;
40453;SDS011;26160;51.858;4.398;2022-08-03T05:06:29;12.43;;;3.15;;
40453;SDS011;26160;51.858;4.398;2022-08-03T05:08:55;8.50;;;2.97;;
40453;SDS011;26160;51.858;4.398;2022-08-03T05:11:22;9.05;;;3.30;;
40453;SDS011;26160;51.858;4.398;2022-08-03T05:13:48;14.68;;;3.78;;
40453;SDS011;26160;51.858;4.398;2022-08-03T05:16:14;12.95;;;3.55;;
40453;SDS011;26160;51.858;4.398;2022-08-03T05:18:41;8.27;;;3.67;;
40453;SDS011;26160;51.858;4.398;2022-08-03T05:21:10;11.75;;;3.55;;
40453;SDS011;26160;51.858;4.398;2022-08-03T05:23:41;16.02;;;3.50;;
40453;SDS011;26160;51.858;4.398;2022-08-03T05:26:08;11.38;;;3.35;;
40453;SDS011;26160;51.858;4.398;2022-08-03T05:28:36;16.17;;;3.45;;
40453;SDS011;26160;51.858;4.398;2022-08-03T05:31:03;9.73;;;2.80;;
40453;SDS011;26160;51.858;4.398;2022-08-03T05:33:29;13.85;;;2.83;;
40453;SDS011;26160;51.858;4.398;2022-08-03T05:35:55;10.93;;;3.40;;
40453;SDS011;26160;51.858;4.398;2022-08-03T05:38:21;15.68;;;3.67;;
40453;SDS011;26160;51.858;4.398;2022-08-03T05:40:47;18.35;;;3.60;;
40453;SDS011;26160;51.858;4.398;2022-08-03T05:43:13;22.33;;;4.10;;
40453;SDS011;26160;51.858;4.398;2022-08-03T05:45:41;10.85;;;3.47;;
40453;SDS011;26160;51.858;4.398;2022-08-03T05:48:07;14.98;;;3.70;;
40453;SDS011;26160;51.858;4.398;2022-08-03T05:50:33;11.07;;;3.08;;
40453;SDS011;26160;51.858;4.398;2022-08-03T05:53:00;10.27;;;3.53;;
40453;SDS011;26160;51.858;4.398;2022-08-03T05:55:27;17.52;;;3.75;;
40453;SDS011;26160;51.858;4.398;2022-08-03T05:57:53;13.45;;;3.60;;
40453;SDS011;26160;51.858;4.398;2022-08-03T06:00:19;12.43;;;4.43;;
40453;SDS011;26160;51.858;4.398;2022-08-03T06:02:45;16.13;;;4.25;;
40453;SDS011;26160;51.858;4.398;2022-08-03T06:05:11;15.68;;;4.68;;
40453;SDS011;26160;51.858;4.398;2022-08-03T06:07:38;16.10;;;4.90;;
40453;SDS011;26160;51.858;4.398;2022-08-03T06:10:04;18.17;;;6.13;;
40453;SDS011;26160;51.858;4.398;2022-08-03T06:12:31;14.75;;;7.15;;
40453;SDS011;26160;51.858;4.398;2022-08-03T06:15:00;20.35;;;7.63;;
40453;SDS011;26160;51.858;4.398;2022-08-03T06:17:28;21.05;;;9.65;;
40453;SDS011;26160;51.858;4.398;2022-08-03T06:19:54;17.13;;;9.20;;
40453;SDS011;26160;51.858;4.398;2022-08-03T06:22:20;16.05;;;9.18;;
40453;SDS011;26160;51.858;4.398;2022-08-03T06:24:46;20.10;;;11.15;;
40453;SDS011;26160;51.858;4.398;2022-08-03T06:27:12;19.80;;;10.95;;
40453;SDS011;26160;51.858;4.398;2022-08-03T06:29:38;22.85;;;11.82;;
40453;SDS011;26160;51.858;4.398;2022-08-03T06:32:05;25.52;;;11.50;;
40453;SDS011;26160;51.858;4.398;2022-08-03T06:34:31;16.88;;;10.38;;
40453;SDS011;26160;51.858;4.398;2022-08-03T06:36:57;18.38;;;10.23;;
40453;SDS011;26160;51.858;4.398;2022-08-03T06:39:23;29.83;;;10.25;;
40453;SDS011;26160;51.858;4.398;2022-08-03T06:41:49;19.88;;;11.05;;
40453;SDS011;26160;51.858;4.398;2022-08-03T06:44:16;15.90;;;10.73;;
40453;SDS011;26160;51.858;4.398;2022-08-03T06:46:42;20.48;;;10.18;;
40453;SDS011;26160;51.858;4.398;2022-08-03T06:49:08;18.33;;;10.65;;
40453;SDS011;26160;51.858;4.398;2022-08-03T06:51:34;22.48;;;12.23;;
40453;SDS011;26160;51.858;4.398;2022-08-03T06:54:01;20.40;;;10.45;;
40453;SDS011;26160;51.858;4.398;2022-08-03T06:56:27;21.50;;;12.02;;
40453;SDS011;26160;51.858;4.398;2022-08-03T06:58:53;21.60;;;12.40;;
40453;SDS011;26160;51.858;4.398;2022-08-03T07:01:19;16.63;;;10.38;;
40453;SDS011;26160;51.858;4.398;2022-08-03T07:03:45;22.30;;;10.70;;
40453;SDS011;26160;51.858;4.398;2022-08-03T07:06:11;19.52;;;10.68;;
40453;SDS011;26160;51.858;4.398;2022-08-03T07:08:37;17.58;;;10.32;;
40453;SDS011;26160;51.858;4.398;2022-08-03T07:11:04;25.35;;;11.63;;
40453;SDS011;26160;51.858;4.398;2022-08-03T07:13:30;20.02;;;10.18;;
40453;SDS011;26160;51.858;4.398;2022-08-03T07:15:56;18.02;;;10.40;;
40453;SDS011;26160;51.858;4.398;2022-08-03T07:18:22;17.60;;;10.35;;
40453;SDS011;26160;51.858;4.398;2022-08-03T07:20:48;17.45;;;10.82;;
40453;SDS011;26160;51.858;4.398;2022-08-03T07:23:14;24.73;;;10.20;;
40453;SDS011;26160;51.858;4.398;2022-08-03T07:25:40;18.10;;;8.45;;
40453;SDS011;26160;51.858;4.398;2022-08-03T07:28:06;17.58;;;10.15;;
40453;SDS011;26160;51.858;4.398;2022-08-03T07:30:32;15.80;;;9.20;;
40453;SDS011;26160;51.858;4.398;2022-08-03T07:33:00;15.98;;;9.05;;
40453;SDS011;26160;51.858;4.398;2022-08-03T07:35:26;17.73;;;8.90;;
40453;SDS011;26160;51.858;4.398;2022-08-03T07:37:52;25.00;;;10.35;;
40453;SDS011;26160;51.858;4.398;2022-08-03T07:40:18;15.25;;;9.50;;
40453;SDS011;26160;51.858;4.398;2022-08-03T07:42:44;21.77;;;10.40;;
40453;SDS011;26160;51.858;4.398;2022-08-03T07:45:10;17.15;;;9.63;;
40453;SDS011;26160;51.858;4.398;2022-08-03T07:47:36;22.45;;;9.55;;
40453;SDS011;26160;51.858;4.398;2022-08-03T07:50:04;28.27;;;10.27;;
40453;SDS011;26160;51.858;4.398;2022-08-03T07:52:30;16.52;;;9.15;;
40453;SDS011;26160;51.858;4.398;2022-08-03T07:55:17;20.63;;;10.52;;
40453;SDS011;26160;51.858;4.398;2022-08-03T07:57:44;17.40;;;10.50;;
40453;SDS011;26160;51.858;4.398;2022-08-03T08:00:12;20.65;;;9.30;;
40453;SDS011;26160;51.858;4.398;2022-08-03T08:02:43;17.95;;;8.57;;
40453;SDS011;26160;51.858;4.398;2022-08-03T08:05:10;21.77;;;9.27;;
40453;SDS011;26160;51.858;4.398;2022-08-03T08:07:37;17.77;;;10.02;;
40453;SDS011;26160;51.858;4.398;2022-08-03T08:10:07;18.77;;;9.50;;
40453;SDS011;26160;51.858;4.398;2022-08-03T08:12:34;19.08;;;9.13;;
40453;SDS011;26160;51.858;4.398;2022-08-03T08:15:04;14.80;;;8.65;;
40453;SDS011;26160;51.858;4.398;2022-08-03T08:17:40;22.45;;;9.88;;
40453;SDS011;26160;51.858;4.398;2022-08-03T08:20:11;16.10;;;8.98;;
40453;SDS011;26160;51.858;4.398;2022-08-03T08:22:40;15.40;;;8.25;;
40453;SDS011;26160;51.858;4.398;2022-08-03T08:25:06;16.77;;;9.45;;
40453;SDS011;26160;51.858;4.398;2022-08-03T08:27:33;18.88;;;8.13;;
40453;SDS011;26160;51.858;4.398;2022-08-03T08:30:06;23.70;;;8.93;;
40453;SDS011;26160;51.858;4.398;2022-08-03T08:32:33;16.45;;;7.82;;
40453;SDS011;26160;51.858;4.398;2022-08-03T08:35:02;14.77;;;8.52;;
40453;SDS011;26160;51.858;4.398;2022-08-03T08:37:29;13.60;;;8.07;;
40453;SDS011;26160;51.858;4.398;2022-08-03T08:39:55;16.52;;;8.25;;
40453;SDS011;26160;51.858;4.398;2022-08-03T08:42:21;15.93;;;8.75;;
40453;SDS011;26160;51.858;4.398;2022-08-03T08:44:47;21.80;;;7.43;;
40453;SDS011;26160;51.858;4.398;2022-08-03T08:47:14;17.50;;;7.97;;
40453;SDS011;26160;51.858;4.398;2022-08-03T08:49:40;13.23;;;7.65;;
40453;SDS011;26160;51.858;4.398;2022-08-03T08:52:07;22.58;;;7.82;;
40453;SDS011;26160;51.858;4.398;2022-08-03T08:54:34;11.73;;;5.95;;
40453;SDS011;26160;51.858;4.398;2022-08-03T08:57:02;16.08;;;7.45;;
40453;SDS011;26160;51.858;4.398;2022-08-03T08:59:32;15.77;;;7.78;;
40453;SDS011;26160;51.858;4.398;2022-08-03T09:02:04;15.52;;;7.43;;
40453;SDS011;26160;51.858;4.398;2022-08-03T09:04:30;12.82;;;6.78;;
40453;SDS011;26160;51.858;4.398;2022-08-03T09:06:57;12.82;;;6.28;;
40453;SDS011;26160;51.858;4.398;2022-08-03T09:09:23;13.00;;;6.07;;
40453;SDS011;26160;51.858;4.398;2022-08-03T09:11:49;17.08;;;6.82;;
40453;SDS011;26160;51.858;4.398;2022-08-03T09:14:15;14.98;;;6.82;;
40453;SDS011;26160;51.858;4.398;2022-08-03T09:16:54;17.30;;;7.47;;
40453;SDS011;26160;51.858;4.398;2022-08-03T09:19:24;12.15;;;6.40;;
40453;SDS011;26160;51.858;4.398;2022-08-03T09:22:12;13.85;;;6.70;;
40453;SDS011;26160;51.858;4.398;2022-08-03T09:24:56;15.85;;;6.93;;
40453;SDS011;26160;51.858;4.398;2022-08-03T09:27:24;12.65;;;6.97;;
40453;SDS011;26160;51.858;4.398;2022-08-03T09:29:50;13.35;;;6.32;;
40453;SDS011;26160;51.858;4.398;2022-08-03T09:32:21;14.85;;;6.28;;
40453;SDS011;26160;51.858;4.398;2022-08-03T09:34:50;14.27;;;7.13;;
40453;SDS011;26160;51.858;4.398;2022-08-03T09:37:18;14.30;;;6.25;;
40453;SDS011;26160;51.858;4.398;2022-08-03T09:39:45;12.25;;;6.70;;
40453;SDS011;26160;51.858;4.398;2022-08-03T09:42:15;15.00;;;6.85;;
40453;SDS011;26160;51.858;4.398;2022-08-03T09:44:44;8.48;;;5.82;;
40453;SDS011;26160;51.858;4.398;2022-08-03T09:47:13;14.15;;;6.40;;
40453;SDS011;26160;51.858;4.398;2022-08-03T09:49:41;17.45;;;6.63;;
40453;SDS011;26160;51.858;4.398;2022-08-03T09:52:20;13.50;;;6.95;;
40453;SDS011;26160;51.858;4.398;2022-08-03T09:54:57;14.63;;;7.03;;
40453;SDS011;26160;51.858;4.398;2022-08-03T09:57:24;10.85;;;5.57;;
40453;SDS011;26160;51.858;4.398;2022-08-03T09:59:52;14.82;;;6.50;;
40453;SDS011;26160;51.858;4.398;2022-08-03T10:02:23;16.30;;;7.17;;
40453;SDS011;26160;51.858;4.398;2022-08-03T10:04:51;12.25;;;6.00;;
40453;SDS011;26160;51.858;4.398;2022-08-03T10:07:19;13.70;;;6.85;;
40453;SDS011;26160;51.858;4.398;2022-08-03T10:09:57;15.63;;;5.65;;
40453;SDS011;26160;51.858;4.398;2022-08-03T10:12:25;13.88;;;6.72;;
40453;SDS011;26160;51.858;4.398;2022-08-03T10:14:52;15.60;;;6.60;;
40453;SDS011;26160;51.858;4.398;2022-08-03T10:17:19;12.93;;;5.95;;
40453;SDS011;26160;51.858;4.398;2022-08-03T10:19:49;13.95;;;4.93;;
40453;SDS011;26160;51.858;4.398;2022-08-03T10:22:15;10.93;;;5.30;;
40453;SDS011;26160;51.858;4.398;2022-08-03T10:24:54;13.90;;;6.18;;
40453;SDS011;26160;51.858;4.398;2022-08-03T10:27:23;15.43;;;5.80;;
40453;SDS011;26160;51.858;4.398;2022-08-03T10:29:52;15.63;;;6.60;;
40453;SDS011;26160;51.858;4.398;2022-08-03T10:32:25;15.52;;;5.82;;
40453;SDS011;26160;51.858;4.398;2022-08-03T10:35:13;14.75;;;5.90;;
40453;SDS011;26160;51.858;4.398;2022-08-03T10:37:43;18.42;;;5.13;;
40453;SDS011;26160;51.858;4.398;2022-08-03T10:40:13;15.43;;;5.93;;
40453;SDS011;26160;51.858;4.398;2022-08-03T10:42:43;13.50;;;5.68;;
40453;SDS011;26160;51.858;4.398;2022-08-03T10:45:18;10.60;;;4.87;;
40453;SDS011;26160;51.858;4.398;2022-08-03T10:47:48;8.55;;;5.13;;
40453;SDS011;26160;51.858;4.398;2022-08-03T10:50:16;13.30;;;5.68;;
40453;SDS011;26160;51.858;4.398;2022-08-03T10:52:56;20.67;;;5.80;;
40453;SDS011;26160;51.858;4.398;2022-08-03T10:55:35;13.93;;;5.13;;
40453;SDS011;26160;51.858;4.398;2022-08-03T11:01:09;13.93;;;5.68;;
40453;SDS011;26160;51.858;4.398;2022-08-03T11:04:22;13.05;;;5.10;;
40453;SDS011;26160;51.858;4.398;2022-08-03T11:06:23;14.25;;;5.40;;
40453;SDS011;26160;51.858;4.398;2022-08-03T11:09:37;11.57;;;4.78;;
40453;SDS011;26160;51.858;4.398;2022-08-03T11:11:37;12.90;;;5.28;;
40453;SDS011;26160;51.858;4.398;2022-08-03T11:14:17;15.23;;;5.05;;
40453;SDS011;26160;51.858;4.398;2022-08-03T11:16:46;13.85;;;5.13;;
40453;SDS011;26160;51.858;4.398;2022-08-03T11:19:18;11.20;;;4.45;;
40453;SDS011;26160;51.858;4.398;2022-08-03T11:27:15;10.80;;;3.83;;
40453;SDS011;26160;51.858;4.398;2022-08-03T11:29:53;9.18;;;3.33;;
40453;SDS011;26160;51.858;4.398;2022-08-03T11:46:05;13.93;;;3.90;;
40453;SDS011;26160;51.858;4.398;2022-08-03T11:48:42;9.10;;;3.13;;
40453;SDS011;26160;51.858;4.398;2022-08-03T11:51:26;10.40;;;3.50;;
40453;SDS011;26160;51.858;4.398;2022-08-03T11:54:00;8.55;;;2.50;;
40453;SDS011;26160;51.858;4.398;2022-08-03T11:56:29;10.10;;;2.70;;
40453;SDS011;26160;51.858;4.398;2022-08-03T11:59:11;9.02;;;2.40;;
40453;SDS011;26160;51.858;4.398;2022-08-03T12:01:38;8.90;;;2.83;;
40453;SDS011;26160;51.858;4.398;2022-08-03T12:04:05;10.70;;;3.25;;
40453;SDS011;26160;51.858;4.398;2022-08-03T12:06:31;8.88;;;2.65;;
40453;SDS011;26160;51.858;4.398;2022-08-03T12:09:19;8.93;;;2.28;;
40453;SDS011;26160;51.858;4.398;2022-08-03T12:11:49;9.88;;;2.90;;
40453;SDS011;26160;51.858;4.398;2022-08-03T12:14:16;8.43;;;2.63;;
40453;SDS011;26160;51.858;4.398;2022-08-03T12:16:46;12.70;;;2.53;;
40453;SDS011;26160;51.858;4.398;2022-08-03T12:19:13;10.30;;;2.78;;
40453;SDS011;26160;51.858;4.398;2022-08-03T12:21:46;7.63;;;2.33;;
40453;SDS011;26160;51.858;4.398;2022-08-03T12:24:15;15.95;;;2.80;;
40453;SDS011;26160;51.858;4.398;2022-08-03T12:26:43;10.30;;;2.55;;
40453;SDS011;26160;51.858;4.398;2022-08-03T12:29:17;13.27;;;2.50;;
40453;SDS011;26160;51.858;4.398;2022-08-03T12:31:44;7.57;;;2.30;;
40453;SDS011;26160;51.858;4.398;2022-08-03T12:34:10;6.75;;;1.65;;
40453;SDS011;26160;51.858;4.398;2022-08-03T12:36:36;11.77;;;2.53;;
40453;SDS011;26160;51.858;4.398;2022-08-03T12:39:05;7.95;;;2.03;;
40453;SDS011;26160;51.858;4.398;2022-08-03T12:41:34;5.60;;;1.90;;
40453;SDS011;26160;51.858;4.398;2022-08-03T12:44:03;8.00;;;2.35;;
40453;SDS011;26160;51.858;4.398;2022-08-03T12:46:32;7.40;;;1.98;;
40453;SDS011;26160;51.858;4.398;2022-08-03T12:49:13;9.73;;;2.53;;
40453;SDS011;26160;51.858;4.398;2022-08-03T12:54:07;10.05;;;2.17;;
40453;SDS011;26160;51.858;4.398;2022-08-03T12:56:34;7.97;;;2.40;;
40453;SDS011;26160;51.858;4.398;2022-08-03T12:59:27;6.10;;;1.92;;
40453;SDS011;26160;51.858;4.398;2022-08-03T13:01:54;14.77;;;3.03;;
40453;SDS011;26160;51.858;4.398;2022-08-03T13:04:27;10.00;;;2.42;;
40453;SDS011;26160;51.858;4.398;2022-08-03T13:07:06;7.07;;;1.75;;
40453;SDS011;26160;51.858;4.398;2022-08-03T13:09:40;4.20;;;1.70;;
40453;SDS011;26160;51.858;4.398;2022-08-03T13:12:13;5.45;;;1.73;;
40453;SDS011;26160;51.858;4.398;2022-08-03T13:14:40;16.98;;;2.90;;
40453;SDS011;26160;51.858;4.398;2022-08-03T13:17:07;5.20;;;1.40;;
40453;SDS011;26160;51.858;4.398;2022-08-03T13:19:34;7.68;;;1.70;;
40453;SDS011;26160;51.858;4.398;2022-08-03T13:24:40;7.45;;;2.10;;
40453;SDS011;26160;51.858;4.398;2022-08-03T13:27:08;7.13;;;1.80;;
40453;SDS011;26160;51.858;4.398;2022-08-03T13:29:34;7.95;;;1.50;;
40453;SDS011;26160;51.858;4.398;2022-08-03T13:32:01;6.30;;;1.42;;
40453;SDS011;26160;51.858;4.398;2022-08-03T13:34:28;3.95;;;1.40;;
40453;SDS011;26160;51.858;4.398;2022-08-03T13:36:54;2.30;;;0.98;;
40453;SDS011;26160;51.858;4.398;2022-08-03T13:39:20;2.38;;;1.00;;
40453;SDS011;26160;51.858;4.398;2022-08-03T13:41:47;5.93;;;1.02;;
40453;SDS011;26160;51.858;4.398;2022-08-03T13:44:14;3.38;;;1.02;;
40453;SDS011;26160;51.858;4.398;2022-08-03T13:46:40;3.10;;;1.10;;
40453;SDS011;26160;51.858;4.398;2022-08-03T13:49:06;3.63;;;1.15;;
40453;SDS011;26160;51.858;4.398;2022-08-03T13:51:33;6.10;;;1.00;;
40453;SDS011;26160;51.858;4.398;2022-08-03T13:53:59;5.72;;;1.10;;
40453;SDS011;26160;51.858;4.398;2022-08-03T13:56:26;4.85;;;1.25;;
40453;SDS011;26160;51.858;4.398;2022-08-03T13:58:52;5.03;;;1.52;;
40453;SDS011;26160;51.858;4.398;2022-08-03T14:01:18;4.63;;;1.20;;
40453;SDS011;26160;51.858;4.398;2022-08-03T14:03:45;6.07;;;1.23;;
40453;SDS011;26160;51.858;4.398;2022-08-03T14:06:13;4.55;;;1.08;;
40453;SDS011;26160;51.858;4.398;2022-08-03T14:08:39;3.35;;;1.02;;
40453;SDS011;26160;51.858;4.398;2022-08-03T14:11:05;2.70;;;1.20;;
40453;SDS011;26160;51.858;4.398;2022-08-03T14:13:31;3.80;;;1.00;;
40453;SDS011;26160;51.858;4.398;2022-08-03T14:15:57;5.40;;;1.20;;
40453;SDS011;26160;51.858;4.398;2022-08-03T14:18:23;2.85;;;0.88;;
40453;SDS011;26160;51.858;4.398;2022-08-03T14:20:50;3.53;;;1.05;;
40453;SDS011;26160;51.858;4.398;2022-08-03T14:23:16;4.53;;;1.05;;
40453;SDS011;26160;51.858;4.398;2022-08-03T14:25:43;4.10;;;0.98;;
40453;SDS011;26160;51.858;4.398;2022-08-03T14:28:09;3.55;;;0.80;;
40453;SDS011;26160;51.858;4.398;2022-08-03T14:30:35;2.70;;;1.02;;
40453;SDS011;26160;51.858;4.398;2022-08-03T14:33:01;3.90;;;1.27;;
40453;SDS011;26160;51.858;4.398;2022-08-03T14:35:28;3.08;;;1.20;;
40453;SDS011;26160;51.858;4.398;2022-08-03T14:37:54;7.97;;;1.13;;
40453;SDS011;26160;51.858;4.398;2022-08-03T14:40:20;7.85;;;1.40;;
40453;SDS011;26160;51.858;4.398;2022-08-03T14:42:46;3.75;;;1.17;;
40453;SDS011;26160;51.858;4.398;2022-08-03T14:45:12;8.25;;;1.40;;
40453;SDS011;26160;51.858;4.398;2022-08-03T14:47:41;3.70;;;1.00;;
40453;SDS011;26160;51.858;4.398;2022-08-03T14:50:10;2.78;;;0.90;;
40453;SDS011;26160;51.858;4.398;2022-08-03T14:52:36;3.28;;;1.27;;
40453;SDS011;26160;51.858;4.398;2022-08-03T14:55:02;5.43;;;1.08;;
40453;SDS011;26160;51.858;4.398;2022-08-03T14:57:29;4.72;;;1.15;;
40453;SDS011;26160;51.858;4.398;2022-08-03T14:59:55;5.68;;;1.10;;
40453;SDS011;26160;51.858;4.398;2022-08-03T15:02:21;2.20;;;0.98;;
40453;SDS011;26160;51.858;4.398;2022-08-03T15:04:47;5.00;;;1.02;;
40453;SDS011;26160;51.858;4.398;2022-08-03T15:07:13;3.13;;;1.20;;
40453;SDS011;26160;51.858;4.398;2022-08-03T15:09:39;6.55;;;1.35;;
40453;SDS011;26160;51.858;4.398;2022-08-03T15:12:05;2.67;;;1.10;;
40453;SDS011;26160;51.858;4.398;2022-08-03T15:14:32;6.05;;;0.90;;
40453;SDS011;26160;51.858;4.398;2022-08-03T15:16:58;4.03;;;1.20;;
40453;SDS011;26160;51.858;4.398;2022-08-03T15:19:24;4.75;;;1.45;;
40453;SDS011;26160;51.858;4.398;2022-08-03T15:21:50;5.25;;;1.17;;
40453;SDS011;26160;51.858;4.398;2022-08-03T15:24:16;7.95;;;2.47;;
40453;SDS011;26160;51.858;4.398;2022-08-03T15:26:43;7.15;;;1.23;;
40453;SDS011;26160;51.858;4.398;2022-08-03T15:29:09;5.10;;;1.35;;